Latest Weather Observations for Point Stuart

IDD60901

Issued at 9:11 pm CST Tuesday 21 April 2015 (issued every 10 minutes, with the page automatically refreshed every 10 minutes)

About weather observations | Map of Darwin area stations | Latest observations for Darwin area | Other Formats
Station Details ID: 014254 Name: POINT STUART Lat: -12.24 Lon: 131.88 Height: 1.0 m
Data from the previous 72 hours. | See also: Recent months for locations in Northern Territory
Date/Time
CST
Tmp

°C
App
Tmp
°C
Dew
Point
°C
Rel
Hum
%
Delta-T

°C
Wind Press
QNH
hPa
Press
MSL
hPa
Rain
since
9 am
mm
Dir
 
Spd
km/h
Gust
km/h
Spd
kts
Gust
kts
21/09:00pm 27.1 30.4 22.5 76 3.1 S 9 15 5 8 1010.9 1010.9 0.0
21/08:30pm 27.3 30.5 22.3 74 3.4 SSE 9 9 5 5 1010.8 - 0.0
21/08:00pm 27.1 30.8 22.5 76 3.1 ESE 7 9 4 5 1010.5 - 0.0
21/07:30pm 27.4 31.0 22.3 73 3.4 SSE 7 9 4 5 1010.3 - 0.0
21/07:00pm 27.3 30.2 21.8 72 3.7 SSE 9 9 5 5 1010.1 - 0.0
21/06:30pm 28.1 31.5 21.6 68 4.3 SE 6 7 3 4 1009.7 - 0.0
21/06:00pm 28.8 30.8 20.0 59 5.8 SE 9 15 5 8 1009.3 1009.3 0.0
21/05:30pm 29.1 30.6 19.7 57 6.1 SSE 11 17 6 9 1009.4 - 0.0
21/05:00pm 29.6 30.7 19.6 55 6.5 ENE 13 17 7 9 1009.4 - 0.0
21/04:30pm 30.3 29.6 18.7 50 7.5 SSE 20 24 11 13 1009.2 - 0.0
21/04:00pm 30.8 29.6 18.5 47 7.9 ESE 22 30 12 16 1008.8 - 0.0
21/03:30pm 31.2 30.2 18.9 48 8.0 E 22 32 12 17 1008.6 - 0.0
21/03:00pm 30.9 30.3 18.9 48 7.8 ESE 20 32 11 17 1008.8 1008.8 0.0
21/02:30pm 30.8 30.1 19.5 51 7.4 SE 22 37 12 20 1009.2 - 0.0
21/02:00pm 30.6 29.7 19.0 50 7.5 SE 22 28 12 15 1009.6 - 0.0
21/01:30pm 30.4 28.9 17.8 46 8.0 ESE 22 32 12 17 1009.9 - 0.0
21/01:00pm 30.1 28.6 18.5 49 7.5 ESE 24 30 13 16 1010.2 - 0.0
21/12:30pm 30.9 30.5 20.2 53 7.1 ESE 22 39 12 21 1010.4 - 0.0
21/12:00pm 29.7 28.9 20.0 56 6.4 SE 24 33 13 18 1011.0 1011.0 0.0
21/11:30am 30.2 29.7 20.7 56 6.3 E 24 33 13 18 1011.6 - 0.0
21/11:00am 29.9 29.5 21.6 61 5.6 NE 26 33 14 18 1011.8 - 0.0
21/10:30am 29.6 29.7 21.8 63 5.3 NE 24 33 13 18 1012.1 - 0.0
21/10:00am 29.1 30.2 22.3 66 4.6 ESE 20 28 11 15 1012.3 - 0.0
21/09:30am 28.4 29.2 21.7 67 4.5 E 20 28 11 15 1012.2 - 0.0
21/09:00am 27.6 28.7 21.2 68 4.3 ENE 17 24 9 13 1012.1 1012.1 0.0
21/08:30am 26.2 27.9 21.0 73 3.4 SE 13 19 7 10 1011.8 - 0.0
21/08:00am 25.4 28.3 21.7 80 2.5 ENE 9 11 5 6 1011.5 - 0.0
21/07:30am 24.0 28.0 22.8 93 0.8 NE 6 7 3 4 1011.3 - 0.0
21/07:00am 23.4 27.0 22.4 94 0.7 NE 7 9 4 5 1010.8 - 0.0
21/06:30am 23.5 27.1 22.3 93 0.8 NE 7 9 4 5 1010.1 - 0.0
21/06:00am 23.7 26.7 22.0 90 1.1 NE 9 11 5 6 1009.9 1009.9 0.0
21/05:30am 23.7 26.2 21.0 85 1.8 ESE 9 11 5 6 1009.8 - 0.0
21/05:00am 24.3 26.8 21.0 82 2.2 E 9 11 5 6 1009.9 - 0.0
21/04:30am 24.9 27.2 20.6 77 2.8 SE 9 11 5 6 1010.2 - 0.0
21/04:00am 26.3 27.5 19.9 68 4.2 ESE 13 19 7 10 1010.1 - 0.0
21/03:30am 26.4 27.6 19.8 67 4.3 ESE 13 17 7 9 1010.2 - 0.0
21/03:00am 26.5 27.6 19.6 66 4.5 SE 13 19 7 10 1010.4 1010.4 0.0
21/02:30am 26.5 28.1 19.9 67 4.3 SSE 11 15 6 8 1010.5 - 0.0
21/02:00am 26.9 27.9 19.5 64 4.8 SE 13 19 7 10 1010.4 - 0.0
21/01:30am 27.0 27.2 19.4 63 4.9 SE 17 20 9 11 1010.6 - 0.0
21/01:00am 26.9 27.5 19.5 64 4.8 SE 15 19 8 10 1010.9 - 0.0
21/12:30am 26.8 28.0 19.9 66 4.5 SE 13 17 7 9 1011.1 - 0.0
21/12:00am 27.0 28.2 19.9 65 4.6 SE 13 17 7 9 1011.2 1011.2 0.0
 
Date/Time
CST
Tmp

°C
App
Tmp
°C
Dew
Point
°C
Rel
Hum
%
Delta-T

°C
Wind Press
QNH
hPa
Press
MSL
hPa
Rain
since
9 am
mm
Dir
 
Spd
km/h
Gust
km/h
Spd
kts
Gust
kts
20/11:30pm 27.2 28.6 20.3 66 4.5 ESE 13 17 7 9 1011.5 - 0.0
20/11:00pm 26.8 28.9 20.9 70 3.9 SE 11 13 6 7 1011.4 - 0.0
20/10:30pm 26.5 28.9 21.5 74 3.3 SE 11 13 6 7 1011.1 - 0.0
20/10:00pm 25.9 28.9 22.0 79 2.6 ESE 9 11 5 6 1011.0 - 0.0
20/09:30pm 26.4 28.1 20.9 72 3.6 ESE 13 15 7 8 1010.9 - 0.0
20/09:00pm 26.6 30.0 22.7 79 2.6 ESE 9 11 5 6 1010.7 1010.7 0.0
20/08:30pm 26.8 29.1 21.3 72 3.7 E 11 11 6 6 1010.5 - 0.0
20/08:00pm 27.2 29.4 21.2 69 4.0 ESE 11 13 6 7 1010.2 - 0.0
20/07:30pm 27.7 29.7 20.8 66 4.6 ESE 11 13 6 7 1009.8 - 0.0
20/07:00pm 28.6 30.4 20.3 60 5.5 ESE 11 15 6 8 1009.6 - 0.0
20/06:30pm 29.7 30.8 19.7 55 6.5 E 13 19 7 10 1009.1 - 0.0
20/06:00pm 30.5 31.4 19.2 51 7.4 NNE 13 19 7 10 1008.8 1008.8 0.0
20/05:30pm 31.4 31.6 19.4 49 7.9 E 17 26 9 14 1008.4 - 0.0
20/05:00pm 32.5 33.5 21.0 50 7.7 E 17 26 9 14 1008.2 - 0.0
20/04:30pm 32.4 31.7 19.6 46 8.4 ESE 22 32 12 17 1007.9 - 0.0
20/04:00pm 32.9 32.6 20.4 47 8.3 E 22 35 12 19 1008.1 - 0.0
20/03:30pm 32.3 32.9 20.2 48 8.0 SE 17 28 9 15 1008.2 - 0.0
20/03:00pm 32.8 32.6 21.3 50 7.8 ESE 24 35 13 19 1008.7 1008.7 0.0
20/02:30pm 32.4 31.7 20.3 48 8.0 E 24 33 13 18 1009.2 - 0.0
20/02:00pm 32.0 31.3 20.3 50 7.8 ESE 24 35 13 19 1009.5 - 0.0
20/01:30pm 31.8 30.5 20.7 51 7.4 ESE 28 41 15 22 1010.0 - 0.0
20/01:00pm 30.7 28.9 21.2 57 6.4 E 32 41 17 22 1010.4 - 0.0
20/12:30pm 31.6 31.0 22.0 56 6.5 ESE 28 41 15 22 1010.7 - 0.0
20/12:00pm 30.8 31.2 23.2 64 5.2 E 26 41 14 22 1010.9 1010.9 0.0
20/11:30am 30.2 30.9 22.9 65 5.0 ESE 24 39 13 21 1011.4 - 0.0
20/11:00am 30.3 29.9 23.0 65 5.0 ESE 30 39 16 21 1011.7 - 0.0
20/10:30am 29.8 29.4 23.0 67 4.7 ESE 30 39 16 21 1011.9 - 0.0
20/10:00am 29.2 28.5 23.2 70 4.1 ESE 32 41 17 22 1012.0 - 0.0
20/09:30am 28.8 30.4 23.9 75 3.4 SSE 22 32 12 17 1012.2 - 0.0
20/09:00am 27.4 29.0 23.2 78 2.9 SSE 20 32 11 17 1012.3 1012.3 0.0
20/08:30am 26.9 28.8 22.7 78 2.8 SSE 17 24 9 13 1012.0 - 0.0
20/08:00am 26.1 28.0 22.8 82 2.2 SSE 17 20 9 11 1012.3 - 0.0
20/07:30am 25.4 27.1 22.3 83 2.1 SSE 17 20 9 11 1012.0 - 0.0
20/07:00am 24.6 27.3 22.1 86 1.7 SE 11 11 6 6 1011.2 - 0.0
20/06:30am 24.9 27.8 22.4 86 1.7 SSE 11 13 6 7 1010.8 - 0.0
20/06:00am 25.2 28.0 22.3 84 1.9 SSE 11 13 6 7 1010.5 1010.5 0.0
20/05:30am 25.2 28.0 22.3 84 1.9 ESE 11 13 6 7 1010.5 - 0.0
20/05:00am 25.7 27.8 22.4 82 2.2 ESE 15 19 8 10 1010.5 - 0.0
20/04:30am 25.7 29.1 23.4 87 1.6 SE 11 13 6 7 1010.5 - 0.0
20/04:00am 26.1 29.1 22.6 81 2.4 SE 11 13 6 7 1010.7 - 0.0
20/03:30am 26.8 29.5 22.2 76 3.1 ESE 11 15 6 8 1010.9 - 0.0
20/03:00am 27.0 30.1 22.8 78 2.8 E 11 15 6 8 1011.0 1011.0 0.0
20/02:30am 27.0 32.3 25.2 90 1.3 E 7 11 4 6 1011.2 - 0.0
20/02:00am 26.6 32.2 25.7 95 0.6 ENE 7 9 4 5 1011.1 - 0.0
20/01:30am 27.0 33.7 25.4 91 1.1 CALM 0 0 0 0 1010.9 - 0.0
20/01:00am 27.3 33.2 26.2 94 0.8 S 7 9 4 5 1011.3 - 0.0
20/12:30am 27.1 33.5 26.6 97 0.4 S 6 7 3 4 1011.8 - 0.0
20/12:00am 27.0 34.0 25.9 94 0.8 CALM 0 6 0 3 1012.2 1012.2 0.0
 
Date/Time
CST
Tmp

°C
App
Tmp
°C
Dew
Point
°C
Rel
Hum
%
Delta-T

°C
Wind Press
QNH
hPa
Press
MSL
hPa
Rain
since
9 am
mm
Dir
 
Spd
km/h
Gust
km/h
Spd
kts
Gust
kts
19/11:30pm 27.3 34.2 25.7 91 1.1 CALM 0 0 0 0 1012.2 - 0.0
19/11:00pm 27.4 34.6 26.2 93 0.9 CALM 0 0 0 0 1012.0 - 0.0
19/10:30pm 27.8 35.5 26.9 95 0.6 CALM 0 4 0 2 1011.9 - 0.0
19/10:00pm 27.8 34.8 27.8 100 0.0 S 7 9 4 5 1011.7 - 0.0
19/09:30pm 27.4 34.2 26.7 96 0.5 S 4 6 2 3 1011.1 - 0.0
19/09:00pm 27.5 34.7 26.1 92 1.0 CALM 0 0 0 0 1010.8 1010.8 0.0
19/08:30pm 27.7 34.0 24.7 84 2.1 CALM 0 0 0 0 1010.3 - 0.0
19/08:00pm 27.8 32.2 23.4 77 3.0 N 6 9 3 5 1010.0 - 0.0
19/07:30pm 28.3 32.5 23.2 74 3.5 N 6 7 3 4 1009.5 - 0.0
19/07:00pm 29.2 33.5 23.6 72 3.9 N 7 13 4 7 1009.2 - 0.0
19/06:30pm 30.0 33.4 22.7 65 5.0 N 9 17 5 9 1009.1 - 0.0
19/06:00pm 30.9 34.4 21.9 58 6.1 N 6 7 3 4 1008.8 1008.8 0.0
19/05:30pm 32.2 35.8 22.0 55 6.9 N 6 9 3 5 1008.7 - 0.0
19/05:00pm 33.3 36.6 21.8 51 7.8 N 7 13 4 7 1008.4 - 0.0
19/04:30pm 33.6 36.7 22.1 51 7.9 N 9 13 5 7 1008.3 - 0.0
19/04:00pm 34.2 37.4 22.3 50 8.2 N 9 15 5 8 1008.2 - 0.0
19/03:30pm 34.3 37.9 23.0 51 7.8 NNE 9 15 5 8 1008.2 - 0.0
19/03:00pm 33.8 36.4 21.9 49 8.1 NE 11 19 6 10 1008.5 1008.5 0.0
19/02:30pm 33.6 35.2 21.4 48 8.3 ENE 15 24 8 13 1009.0 - 0.0
19/02:00pm 33.6 35.2 21.4 48 8.3 ENE 15 20 8 11 1009.3 - 0.0
19/01:30pm 33.0 34.5 21.2 50 8.0 E 15 20 8 11 1009.4 - 0.0
19/01:00pm 32.9 34.8 22.7 55 7.0 ENE 17 24 9 13 1009.8 - 0.0
19/12:30pm 32.7 35.1 22.2 54 7.2 ENE 13 20 7 11 1010.4 - 0.0
19/12:00pm 31.9 34.3 22.9 59 6.2 E 15 22 8 12 1010.8 1010.8 0.0
19/11:30am 31.5 33.6 22.5 59 6.1 ENE 15 20 8 11 1011.1 - 0.0
19/11:00am 30.5 32.6 22.4 62 5.5 ESE 15 20 8 11 1011.5 - 0.0
19/10:30am 30.2 32.7 23.1 65 4.9 E 15 20 8 11 1011.8 - 0.0
19/10:00am 29.8 31.7 22.8 66 4.8 ENE 17 24 9 13 1012.0 - 0.0
19/09:30am 29.5 32.3 23.7 71 4.0 NE 15 22 8 12 1012.3 - 0.0
19/09:00am 29.1 31.6 23.8 73 3.7 NE 17 22 9 12 1012.4 1012.4 0.0
19/08:30am 28.3 31.2 23.9 77 3.0 E 15 20 8 11 1012.4 - 0.0
19/08:00am 27.1 32.4 25.9 93 0.8 NNE 9 11 5 6 1012.1 - 0.0
19/07:30am 25.8 31.1 25.8 100 0.0 E 9 11 5 6 1011.7 - 0.0
19/07:00am 24.7 29.3 24.7 100 0.0 E 9 9 5 5 1011.5 - 0.0
19/06:30am 24.7 29.3 24.7 100 0.0 E 9 11 5 6 1011.3 - 0.0
19/06:00am 25.0 29.7 25.0 100 0.0 ESE 9 11 5 6 1011.0 1011.0 0.0
19/05:30am 25.3 30.0 25.0 98 0.2 E 9 11 5 6 1010.8 - 0.0
19/05:00am 26.1 30.3 24.7 92 1.0 E 11 13 6 7 1010.7 - 0.0
19/04:30am 27.5 31.5 25.1 87 1.7 ENE 13 17 7 9 1010.7 - 0.0
19/04:00am 27.2 31.8 25.4 90 1.3 NE 11 13 6 7 1010.6 - 0.0
19/03:30am 26.8 31.9 25.0 90 1.3 NNE 7 11 4 6 1010.6 - 0.0
19/03:00am 27.1 31.9 25.1 89 1.4 NE 9 11 5 6 1010.7 1010.7 0.0
19/02:30am 27.8 31.7 24.8 84 2.1 NE 13 17 7 9 1010.8 - 0.0
19/02:00am 27.8 31.3 24.2 81 2.5 NNE 13 19 7 10 1011.0 - 0.0
19/01:30am 27.6 31.5 24.2 82 2.4 NE 11 17 6 9 1011.4 - 0.0
19/01:00am 27.6 31.0 24.0 81 2.5 N 13 20 7 11 1011.5 - 0.0
19/12:30am 27.8 31.5 24.6 83 2.2 N 13 20 7 11 1011.7 - 0.0
19/12:00am 27.7 32.1 25.1 86 1.8 NE 11 15 6 8 1011.9 1011.9 0.0
 
Date/Time
CST
Tmp

°C
App
Tmp
°C
Dew
Point
°C
Rel
Hum
%
Delta-T

°C
Wind Press
QNH
hPa
Press
MSL
hPa
Rain
since
9 am
mm
Dir
 
Spd
km/h
Gust
km/h
Spd
kts
Gust
kts
18/11:30pm 28.1 31.9 24.7 82 2.4 NE 13 17 7 9 1012.0 - 0.0
18/11:00pm 28.1 31.7 24.3 80 2.6 NE 13 17 7 9 1012.0 - 0.0
18/10:30pm 28.4 31.6 24.4 79 2.8 NNE 15 24 8 13 1011.8 - 0.0
18/10:00pm 28.7 32.0 24.5 78 2.9 NNE 15 22 8 12 1011.6 - 0.0
18/09:30pm 28.8 32.2 24.6 78 2.9 NNE 15 24 8 13 1011.3 - 0.0

Latest Capital City Observations: Canberra | Sydney | Melbourne | Brisbane | Adelaide | Perth | Hobart | Darwin

Other Formats:

Comma delimited format used in spreadsheet applications
http://www.bom.gov.au/fwo/IDD60901/IDD60901.94127.axf

JavaScript Object Notation format (JSON) in row-major order
http://www.bom.gov.au/fwo/IDD60901/IDD60901.94127.json